Ryuoh Maru No.2 — JM5900 — position and weather

sailwx.info

Track history (hours):
 
Tides and Currents Weather Stations Pressure Air Temp Water Temp Dewpoint Dewpoint Depression Visibility Wind Speed Wind Dir Waves Ship Positions

Ryuoh Maru No.2

Last reported at 2014-Nov-17 03:33 UTC. Time now 2014-Nov-23 10:55 UTC.
Position N 35°20' E 139°42'.

Length 80 m; draft 5.4 m.

Type: Cargo ship. MMSI: 431401218.

Date/timePositionNaut miles runAvg speedWind from/ knotsBaromVisibWave heightAir tempDewpointWater temp
2014-Nov-17 03:33N 35°20' E 139°42'1010.0
2014-Nov-17 02:33N 35°28' E 139°48'8 2.4
2014-Nov-16 23:18N 35°35' E 139°53'0 0.0
2014-Nov-16 22:27N 35°35' E 139°53'0 0.0
2014-Nov-16 20:24N 35°35' E 139°53'0 0.0
2014-Nov-16 14:30N 35°35' E 139°53'0 0.0
2014-Nov-16 13:30N 35°35' E 139°53'0 0.0
2014-Nov-15 23:27N 35°35' E 139°53'0 0.0
2014-Nov-15 22:24N 35°35' E 139°53'0 0.0
2014-Nov-15 21:30N 35°35' E 139°53'0 0.0
2014-Nov-15 20:18N 35°35' E 139°53'0 0.0
2014-Nov-15 19:24N 35°35' E 139°53'0 0.0
2014-Nov-15 18:30N 35°35' E 139°53'0 0.0
2014-Nov-15 17:18N 35°35' E 139°53'0 0.0
2014-Nov-15 16:06N 35°35' E 139°53'0 0.0
2014-Nov-15 15:30N 35°35' E 139°53'0 0.0
2014-Nov-15 14:30N 35°35' E 139°53'0 0.0
2014-Nov-15 12:18N 35°35' E 139°53'0 0.0
2014-Nov-15 11:30N 35°35' E 139°53'0 0.0
2014-Nov-15 10:12N 35°35' E 139°53'0 0.0
2014-Nov-15 09:24N 35°35' E 139°53'0 0.0
2014-Nov-15 08:06N 35°35' E 139°53'0 0.0
2014-Nov-15 01:30N 35°35' E 139°53'0 0.0
2014-Nov-15 00:30N 35°35' E 139°53'0 0.0
2014-Nov-14 23:33N 35°35' E 139°53'0 0.0
2014-Nov-14 22:33N 35°35' E 139°53'0 0.0
2014-Nov-14 21:33N 35°35' E 139°53'0 0.0
2014-Nov-14 20:24N 35°35' E 139°53'0 0.0
2014-Nov-14 19:30N 35°35' E 139°53'0 0.0
2014-Nov-14 18:18N 35°35' E 139°53'0 0.0
2014-Nov-14 17:30N 35°35' E 139°53'0 0.0
2014-Nov-14 15:30N 35°35' E 139°53'0 0.0
2014-Nov-13 23:06N 35°35' E 139°53'0 0.0
2014-Nov-13 22:18N 35°35' E 139°53'0 0.0
2014-Nov-13 21:12N 35°35' E 139°53'0 0.0
2014-Nov-13 20:24N 35°35' E 139°53'0 0.0
2014-Nov-13 19:30N 35°35' E 139°53'0 0.0
2014-Nov-13 15:24N 35°35' E 139°53'0 0.0
2014-Nov-13 08:33N 35°35' E 139°53'0 0.0
2014-Nov-13 07:30N 35°35' E 139°53'0 0.0
2014-Nov-13 06:30N 35°35' E 139°53'0 0.0
2014-Nov-13 05:28N 35°35' E 139°53'0 0.0
2014-Nov-13 04:32N 35°35' E 139°53'0 0.0
2014-Nov-13 03:33N 35°35' E 139°53'0 0.0
2014-Nov-12 13:26N 35°35' E 139°53'0 0.0
2014-Nov-12 12:08N 35°35' E 139°53'0 0.0
2014-Nov-12 08:22N 35°35' E 139°53'4 0.4
2014-Nov-11 22:32N 35°37' E 139°50'4 3.8
2014-Nov-11 21:33N 35°35' E 139°53'0 0.0
2014-Nov-11 20:17N 35°35' E 139°53'0 0.0
2014-Nov-11 19:29N 35°35' E 139°53'0 0.0
2014-Nov-11 18:32N 35°35' E 139°53'0 0.0
2014-Nov-11 17:32N 35°35' E 139°53'0 0.0
2014-Nov-11 16:29N 35°35' E 139°53'0 0.0
2014-Nov-11 15:29N 35°35' E 139°53'0 0.0
2014-Nov-11 13:29N 35°35' E 139°53'0 0.0
2014-Nov-11 11:14N 35°35' E 139°53'0 0.0
2014-Nov-11 10:32N 35°35' E 139°53'0 0.0
2014-Nov-11 08:23N 35°35' E 139°53'0 0.0
2014-Nov-11 07:20N 35°35' E 139°53'0 0.0
2014-Nov-11 05:08N 35°35' E 139°53'0 0.0
2014-Nov-11 04:17N 35°35' E 139°53'0 0.0
2014-Nov-10 22:26N 35°35' E 139°53'0 0.0
2014-Nov-10 21:32N 35°35' E 139°53'0 0.0
2014-Nov-10 20:26N 35°35' E 139°53'0 0.0
2014-Nov-10 19:32N 35°35' E 139°53'0 0.0
2014-Nov-10 18:17N 35°35' E 139°53'0 0.0
2014-Nov-10 17:26N 35°35' E 139°53'0 0.0
2014-Nov-10 16:32N 35°35' E 139°53'0 0.0
2014-Nov-10 15:32N 35°35' E 139°53'0 0.0
2014-Nov-10 14:17N 35°35' E 139°53'0 0.0
2014-Nov-10 10:20N 35°35' E 139°53'1 0.3
2014-Nov-10 08:33N 35°35' E 139°53'1010.0
2014-Nov-10 07:33N 35°26' E 139°48'10 9.6
2014-Nov-10 06:33N 35°16' E 139°46'  
Track history (hours):
 
Tides and Currents Weather Stations Pressure Air Temp Water Temp Dewpoint Dewpoint Depression Visibility Wind Speed Wind Dir Waves Ship Positions

Ryuoh Maru No.2

Last reported at 2014-Nov-17 03:33 UTC. Time now 2014-Nov-23 10:55 UTC.
Position N 35°20' E 139°42'.

Length 80 m; draft 5.4 m.

Type: Cargo ship. MMSI: 431401218.

Date/timePositionNaut miles runAvg speedWind from/ knotsBaromVisibWave heightAir tempDewpointWater temp
2014-Nov-17 03:33N 35°20' E 139°42'1010.0
2014-Nov-17 02:33N 35°28' E 139°48'8 2.4
2014-Nov-16 23:18N 35°35' E 139°53'0 0.0
2014-Nov-16 22:27N 35°35' E 139°53'0 0.0
2014-Nov-16 20:24N 35°35' E 139°53'0 0.0
2014-Nov-16 14:30N 35°35' E 139°53'0 0.0
2014-Nov-16 13:30N 35°35' E 139°53'0 0.0
2014-Nov-15 23:27N 35°35' E 139°53'0 0.0
2014-Nov-15 22:24N 35°35' E 139°53'0 0.0
2014-Nov-15 21:30N 35°35' E 139°53'0 0.0
2014-Nov-15 20:18N 35°35' E 139°53'0 0.0
2014-Nov-15 19:24N 35°35' E 139°53'0 0.0
2014-Nov-15 18:30N 35°35' E 139°53'0 0.0
2014-Nov-15 17:18N 35°35' E 139°53'0 0.0
2014-Nov-15 16:06N 35°35' E 139°53'0 0.0
2014-Nov-15 15:30N 35°35' E 139°53'0 0.0
2014-Nov-15 14:30N 35°35' E 139°53'0 0.0
2014-Nov-15 12:18N 35°35' E 139°53'0 0.0
2014-Nov-15 11:30N 35°35' E 139°53'0 0.0
2014-Nov-15 10:12N 35°35' E 139°53'0 0.0
2014-Nov-15 09:24N 35°35' E 139°53'0 0.0
2014-Nov-15 08:06N 35°35' E 139°53'0 0.0
2014-Nov-15 01:30N 35°35' E 139°53'0 0.0
2014-Nov-15 00:30N 35°35' E 139°53'0 0.0
2014-Nov-14 23:33N 35°35' E 139°53'0 0.0
2014-Nov-14 22:33N 35°35' E 139°53'0 0.0
2014-Nov-14 21:33N 35°35' E 139°53'0 0.0
2014-Nov-14 20:24N 35°35' E 139°53'0 0.0
2014-Nov-14 19:30N 35°35' E 139°53'0 0.0
2014-Nov-14 18:18N 35°35' E 139°53'0 0.0
2014-Nov-14 17:30N 35°35' E 139°53'0 0.0
2014-Nov-14 15:30N 35°35' E 139°53'0 0.0
2014-Nov-13 23:06N 35°35' E 139°53'0 0.0
2014-Nov-13 22:18N 35°35' E 139°53'0 0.0
2014-Nov-13 21:12N 35°35' E 139°53'0 0.0
2014-Nov-13 20:24N 35°35' E 139°53'0 0.0
2014-Nov-13 19:30N 35°35' E 139°53'0 0.0
2014-Nov-13 15:24N 35°35' E 139°53'0 0.0
2014-Nov-13 08:33N 35°35' E 139°53'0 0.0
2014-Nov-13 07:30N 35°35' E 139°53'0 0.0
2014-Nov-13 06:30N 35°35' E 139°53'0 0.0
2014-Nov-13 05:28N 35°35' E 139°53'0 0.0
2014-Nov-13 04:32N 35°35' E 139°53'0 0.0
2014-Nov-13 03:33N 35°35' E 139°53'0 0.0
2014-Nov-12 13:26N 35°35' E 139°53'0 0.0
2014-Nov-12 12:08N 35°35' E 139°53'0 0.0
2014-Nov-12 08:22N 35°35' E 139°53'4 0.4
2014-Nov-11 22:32N 35°37' E 139°50'4 3.8
2014-Nov-11 21:33N 35°35' E 139°53'0 0.0
2014-Nov-11 20:17N 35°35' E 139°53'0 0.0
2014-Nov-11 19:29N 35°35' E 139°53'0 0.0
2014-Nov-11 18:32N 35°35' E 139°53'0 0.0
2014-Nov-11 17:32N 35°35' E 139°53'0 0.0
2014-Nov-11 16:29N 35°35' E 139°53'0 0.0
2014-Nov-11 15:29N 35°35' E 139°53'0 0.0
2014-Nov-11 13:29N 35°35' E 139°53'0 0.0
2014-Nov-11 11:14N 35°35' E 139°53'0 0.0
2014-Nov-11 10:32N 35°35' E 139°53'0 0.0
2014-Nov-11 08:23N 35°35' E 139°53'0 0.0
2014-Nov-11 07:20N 35°35' E 139°53'0 0.0
2014-Nov-11 05:08N 35°35' E 139°53'0 0.0
2014-Nov-11 04:17N 35°35' E 139°53'0 0.0
2014-Nov-10 22:26N 35°35' E 139°53'0 0.0
2014-Nov-10 21:32N 35°35' E 139°53'0 0.0
2014-Nov-10 20:26N 35°35' E 139°53'0 0.0
2014-Nov-10 19:32N 35°35' E 139°53'0 0.0
2014-Nov-10 18:17N 35°35' E 139°53'0 0.0
2014-Nov-10 17:26N 35°35' E 139°53'0 0.0
2014-Nov-10 16:32N 35°35' E 139°53'0 0.0
2014-Nov-10 15:32N 35°35' E 139°53'0 0.0
2014-Nov-10 14:17N 35°35' E 139°53'0 0.0
2014-Nov-10 10:20N 35°35' E 139°53'1 0.3
2014-Nov-10 08:33N 35°35' E 139°53'1010.0
2014-Nov-10 07:33N 35°26' E 139°48'10 9.6
2014-Nov-10 06:33N 35°16' E 139°46'  

Dump ship's entire track history